createdAt,value
2022-12-31T00:00:29.483Z,1.10
2022-12-31T00:01:29.390Z,1.00
2022-12-31T00:02:29.447Z,1.10
2022-12-31T00:03:29.448Z,1.00
2022-12-31T00:04:29.355Z,1.00
2022-12-31T00:05:29.347Z,1.10
2022-12-31T00:06:29.336Z,1.10
2022-12-31T00:07:29.328Z,1.10
2022-12-31T00:08:29.330Z,1.10
2022-12-31T00:09:29.296Z,0.90
2022-12-31T00:10:29.285Z,1.00
2022-12-31T00:11:29.274Z,1.00
2022-12-31T00:12:29.270Z,1.00
2022-12-31T00:13:29.256Z,1.00
2022-12-31T00:14:29.240Z,1.10
2022-12-31T00:15:29.247Z,1.10
2022-12-31T00:16:29.245Z,1.10
2022-12-31T00:17:29.209Z,1.10
2022-12-31T00:18:29.201Z,1.00
2022-12-31T00:19:29.193Z,1.00
2022-12-31T00:20:29.172Z,0.90
2022-12-31T00:21:29.167Z,1.00
2022-12-31T00:22:29.156Z,1.00
2022-12-31T00:23:29.138Z,1.00
2022-12-31T00:24:29.151Z,1.10
2022-12-31T00:25:29.122Z,1.00
2022-12-31T00:26:29.107Z,1.00
2022-12-31T00:27:29.093Z,1.00
2022-12-31T00:28:29.087Z,1.10
2022-12-31T00:29:29.071Z,1.20
2022-12-31T00:30:29.189Z,1.00
2022-12-31T00:31:29.051Z,1.10
2022-12-31T00:32:29.041Z,1.10
2022-12-31T00:33:29.028Z,1.00
2022-12-31T00:34:29.031Z,0.90
2022-12-31T00:35:29.008Z,0.90
2022-12-31T00:36:29.047Z,1.00
2022-12-31T00:37:28.984Z,1.00
2022-12-31T00:38:28.979Z,1.00
2022-12-31T00:39:28.965Z,0.90
2022-12-31T00:40:28.971Z,1.00
2022-12-31T00:41:28.940Z,1.00
2022-12-31T00:42:28.933Z,0.90
2022-12-31T00:43:28.915Z,1.10
2022-12-31T00:44:28.906Z,1.20
2022-12-31T00:45:28.894Z,0.90
2022-12-31T00:46:28.922Z,0.90
2022-12-31T00:47:28.870Z,0.90
2022-12-31T00:48:28.882Z,1.00
2022-12-31T00:49:28.850Z,1.00
2022-12-31T00:50:28.836Z,1.00
2022-12-31T00:51:28.826Z,0.90
2022-12-31T00:52:28.816Z,0.80
2022-12-31T00:53:28.803Z,1.00
2022-12-31T00:54:28.828Z,1.10
2022-12-31T00:55:28.789Z,0.90
2022-12-31T00:56:28.791Z,0.80
2022-12-31T00:57:28.762Z,0.90
2022-12-31T00:58:28.749Z,0.90
2022-12-31T00:59:28.736Z,0.90
2022-12-31T01:00:28.738Z,1.00
2022-12-31T01:01:28.904Z,0.90
2022-12-31T01:02:28.931Z,1.00
2022-12-31T01:03:28.726Z,1.00
2022-12-31T01:04:28.681Z,0.90
2022-12-31T01:05:28.668Z,0.90
2022-12-31T01:06:28.672Z,1.00
2022-12-31T01:07:28.647Z,0.90
2022-12-31T01:08:28.636Z,0.90
2022-12-31T01:09:28.629Z,0.90
2022-12-31T01:10:28.611Z,1.10
2022-12-31T01:11:28.601Z,1.00
2022-12-31T01:12:28.617Z,0.90
2022-12-31T01:13:28.586Z,0.90
2022-12-31T01:14:28.566Z,1.00
2022-12-31T01:15:28.578Z,0.90
2022-12-31T01:16:28.550Z,1.00
2022-12-31T01:17:28.535Z,1.00
2022-12-31T01:18:28.551Z,1.00
2022-12-31T01:19:28.515Z,1.00
2022-12-31T01:20:28.511Z,0.90
2022-12-31T01:21:28.508Z,0.90
2022-12-31T01:22:28.493Z,1.00
2022-12-31T01:23:28.465Z,1.00
2022-12-31T01:24:28.460Z,0.80
2022-12-31T01:25:28.444Z,1.00
2022-12-31T01:26:28.432Z,0.90
2022-12-31T01:27:28.420Z,0.90
2022-12-31T01:28:28.434Z,0.90
2022-12-31T01:29:28.398Z,0.80
2022-12-31T01:30:28.410Z,0.90
2022-12-31T01:31:28.429Z,1.10
2022-12-31T01:32:28.371Z,0.80
2022-12-31T01:33:28.353Z,1.00
2022-12-31T01:34:28.342Z,0.80
2022-12-31T01:35:28.337Z,0.90
2022-12-31T01:36:28.325Z,0.90
2022-12-31T01:37:28.316Z,0.90
2022-12-31T01:38:28.306Z,0.80
2022-12-31T01:39:28.289Z,0.90
2022-12-31T01:40:28.279Z,0.90
2022-12-31T01:41:28.269Z,0.90
2022-12-31T01:42:28.259Z,0.90
2022-12-31T01:43:28.240Z,0.90
2022-12-31T01:44:28.254Z,0.90
2022-12-31T01:45:28.223Z,0.80
2022-12-31T01:46:28.334Z,0.80
2022-12-31T01:47:28.198Z,0.90
2022-12-31T01:48:28.233Z,0.80
2022-12-31T01:49:28.174Z,0.80
2022-12-31T01:50:28.162Z,0.90
2022-12-31T01:51:28.154Z,0.80
2022-12-31T01:52:28.160Z,1.00
2022-12-31T01:53:28.126Z,1.00
2022-12-31T01:54:28.124Z,0.80
2022-12-31T01:55:28.115Z,1.00
2022-12-31T01:56:28.106Z,0.90
2022-12-31T01:57:28.102Z,0.90
2022-12-31T01:58:28.074Z,0.80
2022-12-31T01:59:28.062Z,1.00
2022-12-31T02:00:28.091Z,0.90
2022-12-31T02:01:28.130Z,0.80
2022-12-31T02:02:28.112Z,0.90
2022-12-31T02:03:28.098Z,0.80
2022-12-31T02:04:28.010Z,0.80
2022-12-31T02:05:27.998Z,0.90
2022-12-31T02:06:27.998Z,0.90
2022-12-31T02:07:27.976Z,1.00
2022-12-31T02:08:27.968Z,0.90
2022-12-31T02:09:27.957Z,0.80
2022-12-31T02:10:27.941Z,0.90
2022-12-31T02:11:27.951Z,0.90
2022-12-31T02:12:27.931Z,0.80
2022-12-31T02:13:27.905Z,0.90
2022-12-31T02:14:27.894Z,0.80
2022-12-31T02:15:27.882Z,0.90
2022-12-31T02:16:27.928Z,0.80
2022-12-31T02:17:27.858Z,0.80
2022-12-31T02:18:27.853Z,0.80
2022-12-31T02:19:27.838Z,0.90
2022-12-31T02:20:27.831Z,0.90
2022-12-31T02:21:27.815Z,0.70
2022-12-31T02:22:27.811Z,0.80
2022-12-31T02:23:27.808Z,0.70
2022-12-31T02:24:27.815Z,0.70
2022-12-31T02:25:27.772Z,0.80
2022-12-31T02:26:27.764Z,0.90
2022-12-31T02:27:27.746Z,0.80
2022-12-31T02:28:27.748Z,0.80
2022-12-31T02:29:27.726Z,0.90
2022-12-31T02:30:27.748Z,0.90
2022-12-31T02:31:27.773Z,0.70
2022-12-31T02:32:27.712Z,0.80
2022-12-31T02:33:27.692Z,0.70
2022-12-31T02:34:27.673Z,0.90
2022-12-31T02:35:27.659Z,0.90
2022-12-31T02:36:27.666Z,0.70
2022-12-31T02:37:27.639Z,0.80
2022-12-31T02:38:27.624Z,0.80
2022-12-31T02:39:27.611Z,0.70
2022-12-31T02:40:27.613Z,0.80
2022-12-31T02:41:27.599Z,0.80
2022-12-31T02:42:27.585Z,0.80
2022-12-31T02:43:27.574Z,0.80
2022-12-31T02:44:27.563Z,0.90
2022-12-31T02:45:27.547Z,0.80
2022-12-31T02:46:27.584Z,0.80
2022-12-31T02:47:27.526Z,0.90
2022-12-31T02:48:27.550Z,0.80
2022-12-31T02:49:27.507Z,0.80
2022-12-31T02:50:27.488Z,0.70
2022-12-31T02:51:27.482Z,0.70
2022-12-31T02:52:27.470Z,0.80
2022-12-31T02:53:27.458Z,0.80
2022-12-31T02:54:27.467Z,0.80
2022-12-31T02:55:27.434Z,0.80
2022-12-31T02:56:27.427Z,0.80
2022-12-31T02:57:27.410Z,0.80
2022-12-31T02:58:27.410Z,0.70
2022-12-31T02:59:27.392Z,0.80
2022-12-31T03:00:27.476Z,0.80
2022-12-31T03:01:27.451Z,0.90
2022-12-31T03:02:27.469Z,0.80
2022-12-31T03:03:27.362Z,0.80
2022-12-31T03:04:27.356Z,0.70
2022-12-31T03:05:27.322Z,0.70
2022-12-31T03:06:27.316Z,0.80
2022-12-31T03:07:27.299Z,0.80
2022-12-31T03:08:27.288Z,0.70
2022-12-31T03:09:27.276Z,0.90
2022-12-31T03:10:27.279Z,0.80
2022-12-31T03:11:27.259Z,0.80
2022-12-31T03:12:27.264Z,0.90
2022-12-31T03:13:27.231Z,0.80
2022-12-31T03:14:27.219Z,0.80
2022-12-31T03:15:27.207Z,0.70
2022-12-31T03:16:27.273Z,0.80
2022-12-31T03:17:27.190Z,0.60
2022-12-31T03:18:27.182Z,0.70
2022-12-31T03:19:27.183Z,0.70
2022-12-31T03:20:27.178Z,0.70
2022-12-31T03:21:27.141Z,0.70
2022-12-31T03:22:27.132Z,0.70
2022-12-31T03:23:27.126Z,0.80
2022-12-31T03:24:27.115Z,0.70
2022-12-31T03:25:27.099Z,0.70
2022-12-31T03:26:27.086Z,0.70
2022-12-31T03:27:27.075Z,0.70
2022-12-31T03:28:27.069Z,0.70
2022-12-31T03:29:27.053Z,0.80
2022-12-31T03:30:27.046Z,0.80
2022-12-31T03:31:27.086Z,0.80
2022-12-31T03:32:27.018Z,0.80
2022-12-31T03:33:27.022Z,0.70
2022-12-31T03:34:26.997Z,0.80
2022-12-31T03:35:26.991Z,0.70
2022-12-31T03:36:27.024Z,0.60
2022-12-31T03:37:26.964Z,0.70
2022-12-31T03:38:26.951Z,0.80
2022-12-31T03:39:26.938Z,0.70
2022-12-31T03:40:26.930Z,0.70
2022-12-31T03:41:26.915Z,0.80
2022-12-31T03:42:26.914Z,0.60
2022-12-31T03:43:26.895Z,0.80
2022-12-31T03:44:26.884Z,0.80
2022-12-31T03:45:26.872Z,0.70
2022-12-31T03:46:26.862Z,0.70
2022-12-31T03:47:26.850Z,0.60
2022-12-31T03:48:26.860Z,0.80
2022-12-31T03:49:26.834Z,0.70
2022-12-31T03:50:26.816Z,0.80
2022-12-31T03:51:26.805Z,0.60
2022-12-31T03:52:26.818Z,0.60
2022-12-31T03:53:26.786Z,0.60
2022-12-31T03:54:26.790Z,0.70
2022-12-31T03:55:26.761Z,0.70
2022-12-31T03:56:26.750Z,0.80
2022-12-31T03:57:26.739Z,0.80
2022-12-31T03:58:26.755Z,0.80
2022-12-31T03:59:26.716Z,0.70
2022-12-31T04:00:26.757Z,0.60
2022-12-31T04:01:26.833Z,0.80
2022-12-31T04:02:29.398Z,0.70
2022-12-31T04:03:26.697Z,0.70
2022-12-31T04:04:26.660Z,0.70
2022-12-31T04:05:26.654Z,0.70
2022-12-31T04:06:26.652Z,0.60
2022-12-31T04:07:26.627Z,0.60
2022-12-31T04:08:26.646Z,0.60
2022-12-31T04:09:26.605Z,0.80
2022-12-31T04:10:26.592Z,0.70
2022-12-31T04:11:26.583Z,0.70
2022-12-31T04:12:26.579Z,0.60
2022-12-31T04:13:26.561Z,0.60
2022-12-31T04:14:26.549Z,0.60
2022-12-31T04:15:26.536Z,0.70
2022-12-31T04:16:26.619Z,0.70
2022-12-31T04:17:26.514Z,0.70
2022-12-31T04:18:26.510Z,0.60
2022-12-31T04:19:26.491Z,0.60
2022-12-31T04:20:26.505Z,0.70
2022-12-31T04:21:31.476Z,0.70
2022-12-31T04:22:27.460Z,0.50
2022-12-31T04:23:26.468Z,0.70
2022-12-31T04:24:26.503Z,0.70
2022-12-31T04:25:26.427Z,0.60
2022-12-31T04:26:26.413Z,0.60
2022-12-31T04:27:26.405Z,0.60
2022-12-31T04:28:26.395Z,0.60
2022-12-31T04:29:26.381Z,0.70
2022-12-31T04:30:26.383Z,0.60
2022-12-31T04:31:26.398Z,0.60
2022-12-31T04:32:26.348Z,0.70
2022-12-31T04:33:26.335Z,0.60
2022-12-31T04:34:26.324Z,0.60
2022-12-31T04:35:26.320Z,0.70
2022-12-31T04:36:26.305Z,0.70
2022-12-31T04:37:26.289Z,0.60
2022-12-31T04:38:26.282Z,0.50
2022-12-31T04:39:26.267Z,0.60
2022-12-31T04:40:26.278Z,0.70
2022-12-31T04:41:26.249Z,0.70
2022-12-31T04:42:26.241Z,0.60
2022-12-31T04:43:26.229Z,0.60
2022-12-31T04:44:26.225Z,0.60
2022-12-31T04:45:26.259Z,0.60
2022-12-31T04:46:26.198Z,0.60
2022-12-31T04:47:26.192Z,0.60
2022-12-31T04:48:26.200Z,0.60
2022-12-31T04:49:26.188Z,0.50
2022-12-31T04:50:26.149Z,0.60
2022-12-31T04:51:26.202Z,0.60
2022-12-31T04:52:26.131Z,0.60
2022-12-31T04:53:26.135Z,0.60
2022-12-31T04:54:26.146Z,0.60
2022-12-31T04:55:26.088Z,0.50
2022-12-31T04:56:26.094Z,0.60
2022-12-31T04:57:26.071Z,0.60
2022-12-31T04:58:26.056Z,0.50
2022-12-31T04:59:26.061Z,0.50
2022-12-31T05:00:26.042Z,0.60
2022-12-31T05:01:26.184Z,0.50
2022-12-31T05:02:26.163Z,0.60
2022-12-31T05:03:26.047Z,0.60
2022-12-31T05:04:25.987Z,0.70
2022-12-31T05:05:25.977Z,0.70
2022-12-31T05:06:26.001Z,0.80
2022-12-31T05:07:25.985Z,0.60
2022-12-31T05:08:25.943Z,0.60
2022-12-31T05:09:25.933Z,0.60
2022-12-31T05:10:25.935Z,0.50
2022-12-31T05:11:25.913Z,0.70
2022-12-31T05:12:25.930Z,0.60
2022-12-31T05:13:31.176Z,0.60
2022-12-31T05:14:26.878Z,0.60
2022-12-31T05:15:25.866Z,0.60
2022-12-31T05:16:25.913Z,0.60
2022-12-31T05:17:25.849Z,0.60
2022-12-31T05:18:25.860Z,0.60
2022-12-31T05:19:25.820Z,0.60
2022-12-31T05:20:25.810Z,0.60
2022-12-31T05:21:25.801Z,0.60
2022-12-31T05:22:25.791Z,0.50
2022-12-31T05:23:25.782Z,0.60
2022-12-31T05:24:25.791Z,0.60
2022-12-31T05:25:25.753Z,0.70
2022-12-31T05:26:25.742Z,0.50
2022-12-31T05:27:25.732Z,0.50
2022-12-31T05:28:25.741Z,0.50
2022-12-31T05:29:25.715Z,0.50
2022-12-31T05:30:25.800Z,0.50
2022-12-31T05:31:25.683Z,0.60
2022-12-31T05:32:25.696Z,0.60
2022-12-31T05:33:25.663Z,0.50
2022-12-31T05:34:25.667Z,0.60
2022-12-31T05:35:25.642Z,0.60
2022-12-31T05:36:25.634Z,0.50
2022-12-31T05:37:25.617Z,0.50
2022-12-31T05:38:25.609Z,0.60
2022-12-31T05:39:25.594Z,0.50
2022-12-31T05:40:25.584Z,0.40
2022-12-31T05:41:25.572Z,0.60
2022-12-31T05:42:25.586Z,0.60
2022-12-31T05:43:25.551Z,0.60
2022-12-31T05:44:25.568Z,0.50
2022-12-31T05:45:30.762Z,0.60
2022-12-31T05:46:26.557Z,0.50
2022-12-31T05:47:25.505Z,0.50
2022-12-31T05:48:25.502Z,0.50
2022-12-31T05:49:25.489Z,0.50
2022-12-31T05:50:25.493Z,0.40
2022-12-31T05:51:25.463Z,0.40
2022-12-31T05:52:25.454Z,0.50
2022-12-31T05:53:25.468Z,0.60
2022-12-31T05:54:25.433Z,0.50
2022-12-31T05:55:25.417Z,0.50
2022-12-31T05:56:25.409Z,0.50
2022-12-31T05:57:25.393Z,0.50
2022-12-31T05:58:25.391Z,0.50
2022-12-31T05:59:25.372Z,0.50
2022-12-31T06:00:25.412Z,0.50
2022-12-31T06:01:25.370Z,0.50
2022-12-31T06:02:25.410Z,0.50
2022-12-31T06:03:25.354Z,0.50
2022-12-31T06:04:25.318Z,0.50
2022-12-31T06:05:26.619Z,0.50
2022-12-31T06:06:25.343Z,0.50
2022-12-31T06:07:25.281Z,0.50
2022-12-31T06:08:25.271Z,0.50
2022-12-31T06:09:25.261Z,0.50
2022-12-31T06:10:25.247Z,0.50
2022-12-31T06:11:25.240Z,0.60
2022-12-31T06:12:25.231Z,0.50
2022-12-31T06:13:25.213Z,0.50
2022-12-31T06:14:25.207Z,0.50
2022-12-31T06:15:25.199Z,0.50
2022-12-31T06:16:25.196Z,0.50
2022-12-31T06:17:25.185Z,0.50
2022-12-31T06:18:25.174Z,0.50
2022-12-31T06:19:25.146Z,0.60
2022-12-31T06:20:25.147Z,0.50
2022-12-31T06:21:25.124Z,0.40
2022-12-31T06:22:25.113Z,0.60
2022-12-31T06:23:25.102Z,0.70
2022-12-31T06:24:25.096Z,0.50
2022-12-31T06:25:25.079Z,0.50
2022-12-31T06:26:25.068Z,0.50
2022-12-31T06:27:25.059Z,0.50
2022-12-31T06:28:25.051Z,0.50
2022-12-31T06:29:25.037Z,0.50
2022-12-31T06:30:25.054Z,0.60
2022-12-31T06:31:25.082Z,0.70
2022-12-31T06:32:25.023Z,0.60
2022-12-31T06:33:24.989Z,0.60
2022-12-31T06:34:24.989Z,0.50
2022-12-31T06:35:24.968Z,0.50
2022-12-31T06:36:24.961Z,0.50
2022-12-31T06:37:24.947Z,0.50
2022-12-31T06:38:24.940Z,0.60
2022-12-31T06:39:24.923Z,0.50
2022-12-31T06:40:24.913Z,0.40
2022-12-31T06:41:24.899Z,0.50
2022-12-31T06:42:24.911Z,0.50
2022-12-31T06:43:24.878Z,0.50
2022-12-31T06:44:24.866Z,0.50
2022-12-31T06:45:24.856Z,0.40
2022-12-31T06:46:24.865Z,0.50
2022-12-31T06:47:24.833Z,0.50
2022-12-31T06:48:24.849Z,0.40
2022-12-31T06:49:24.810Z,0.50
2022-12-31T06:50:24.810Z,0.40
2022-12-31T06:51:24.809Z,0.50
2022-12-31T06:52:24.801Z,0.50
2022-12-31T06:53:24.779Z,0.40
2022-12-31T06:54:24.771Z,0.60
2022-12-31T06:55:24.746Z,0.40
2022-12-31T06:56:31.221Z,0.50
2022-12-31T06:57:25.721Z,0.60
2022-12-31T06:58:24.715Z,0.50
2022-12-31T06:59:24.696Z,0.50
2022-12-31T07:00:24.698Z,0.50
2022-12-31T07:01:24.744Z,0.40
2022-12-31T07:02:24.789Z,0.50
2022-12-31T07:03:24.757Z,0.50
2022-12-31T07:04:24.666Z,0.50
2022-12-31T07:05:24.633Z,0.60
2022-12-31T07:06:24.647Z,0.50
2022-12-31T07:07:24.609Z,0.50
2022-12-31T07:08:24.596Z,0.40
2022-12-31T07:09:24.587Z,0.50
2022-12-31T07:10:29.458Z,0.40
2022-12-31T07:11:25.589Z,0.40
2022-12-31T07:12:24.552Z,0.50
2022-12-31T07:13:24.552Z,0.40
2022-12-31T07:14:24.529Z,0.50
2022-12-31T07:15:24.521Z,0.40
2022-12-31T07:16:24.568Z,0.50
2022-12-31T07:17:24.518Z,0.40
2022-12-31T07:18:24.500Z,0.50
2022-12-31T07:19:24.473Z,0.40
2022-12-31T07:20:24.483Z,0.40
2022-12-31T07:21:24.450Z,0.50
2022-12-31T07:22:24.440Z,0.50
2022-12-31T07:23:24.435Z,0.40
2022-12-31T07:24:24.419Z,0.50
2022-12-31T07:25:24.407Z,0.40
2022-12-31T07:26:24.394Z,0.50
2022-12-31T07:27:24.386Z,0.40
2022-12-31T07:28:24.373Z,0.50
2022-12-31T07:29:24.384Z,0.50
2022-12-31T07:30:24.353Z,0.50
2022-12-31T07:31:24.364Z,0.50
2022-12-31T07:32:24.331Z,0.50
2022-12-31T07:33:24.323Z,0.60
2022-12-31T07:34:24.306Z,0.40
2022-12-31T07:35:27.270Z,0.40
2022-12-31T07:36:25.301Z,0.40
2022-12-31T07:37:24.272Z,0.50
2022-12-31T07:38:24.266Z,0.40
2022-12-31T07:39:24.252Z,0.40
2022-12-31T07:40:24.238Z,0.40
2022-12-31T07:41:24.257Z,0.40
2022-12-31T07:42:24.226Z,0.50
2022-12-31T07:43:24.209Z,0.50
2022-12-31T07:44:24.196Z,0.40
2022-12-31T07:45:24.184Z,0.40
2022-12-31T07:46:24.250Z,0.40
2022-12-31T07:47:24.170Z,0.50
2022-12-31T07:48:24.150Z,0.40
2022-12-31T07:49:24.139Z,0.50
2022-12-31T07:50:24.128Z,0.40
2022-12-31T07:51:24.121Z,0.30
2022-12-31T07:52:24.122Z,0.50
2022-12-31T07:53:24.113Z,0.40
2022-12-31T07:54:24.093Z,0.50
2022-12-31T07:55:24.072Z,0.40
2022-12-31T07:56:24.064Z,0.40
2022-12-31T07:57:24.056Z,0.40
2022-12-31T07:58:24.036Z,0.40
2022-12-31T07:59:24.674Z,0.40
2022-12-31T08:00:24.016Z,0.40
2022-12-31T08:01:24.104Z,0.40
2022-12-31T08:02:24.210Z,0.50
2022-12-31T08:03:23.985Z,0.50
2022-12-31T08:04:23.971Z,0.40
2022-12-31T08:05:23.984Z,0.40
2022-12-31T08:06:23.946Z,0.40
2022-12-31T08:07:23.937Z,0.40
2022-12-31T08:08:23.953Z,0.50
2022-12-31T08:09:23.918Z,0.50
2022-12-31T08:10:23.909Z,0.40
2022-12-31T08:11:23.896Z,0.50
2022-12-31T08:12:23.881Z,0.40
2022-12-31T08:13:23.874Z,0.50
2022-12-31T08:14:23.860Z,0.50
2022-12-31T08:15:30.045Z,0.50
2022-12-31T08:16:24.949Z,0.50
2022-12-31T08:17:23.828Z,0.50
2022-12-31T08:18:23.815Z,0.40
2022-12-31T08:19:23.804Z,0.40
2022-12-31T08:20:23.796Z,0.50
2022-12-31T08:21:26.077Z,0.40
2022-12-31T08:22:23.774Z,0.50
2022-12-31T08:23:23.757Z,0.50
2022-12-31T08:24:23.773Z,0.50
2022-12-31T08:25:23.736Z,0.40
2022-12-31T08:26:23.727Z,0.50
2022-12-31T08:27:23.712Z,0.40
2022-12-31T08:28:23.721Z,0.40
2022-12-31T08:29:23.690Z,0.50
2022-12-31T08:30:23.676Z,0.50
2022-12-31T08:31:23.682Z,0.40
2022-12-31T08:32:23.656Z,0.50
2022-12-31T08:33:23.645Z,0.40
2022-12-31T08:34:23.640Z,0.40
2022-12-31T08:35:23.625Z,0.50
2022-12-31T08:36:23.610Z,0.40
2022-12-31T08:37:23.599Z,0.50
2022-12-31T08:38:23.589Z,0.40
2022-12-31T08:39:23.580Z,0.50
2022-12-31T08:40:23.674Z,0.40
2022-12-31T08:41:23.565Z,0.40
2022-12-31T08:42:23.561Z,0.40
2022-12-31T08:43:23.534Z,0.50
2022-12-31T08:44:23.540Z,0.30
2022-12-31T08:45:23.676Z,0.40
2022-12-31T08:46:23.518Z,0.50
2022-12-31T08:47:23.493Z,0.40
2022-12-31T08:48:23.482Z,0.40
2022-12-31T08:49:23.467Z,0.40
2022-12-31T08:50:23.467Z,0.50
2022-12-31T08:51:23.441Z,0.40
2022-12-31T08:52:23.461Z,0.60
2022-12-31T08:53:23.420Z,0.40
2022-12-31T08:54:23.413Z,0.40
2022-12-31T08:55:23.399Z,0.40
2022-12-31T08:56:23.422Z,0.30
2022-12-31T08:57:23.378Z,0.40
2022-12-31T08:58:23.375Z,0.40
2022-12-31T08:59:23.354Z,0.50
2022-12-31T09:00:23.454Z,0.40
2022-12-31T09:01:23.442Z,0.40
2022-12-31T09:02:23.336Z,0.40
2022-12-31T09:03:23.308Z,0.40
2022-12-31T09:04:23.333Z,0.50
2022-12-31T09:05:23.287Z,0.40
2022-12-31T09:06:23.275Z,0.40
2022-12-31T09:07:23.267Z,0.40
2022-12-31T09:08:23.252Z,0.40
2022-12-31T09:09:23.250Z,0.40
2022-12-31T09:10:23.358Z,0.50
2022-12-31T09:11:23.766Z,0.50
2022-12-31T09:12:23.229Z,0.40
2022-12-31T09:13:23.213Z,0.40
2022-12-31T09:14:23.189Z,0.50
2022-12-31T09:15:23.177Z,0.30
2022-12-31T09:16:23.214Z,0.40
2022-12-31T09:17:23.161Z,0.40
2022-12-31T09:18:27.050Z,0.40
2022-12-31T09:19:24.140Z,0.50
2022-12-31T09:20:23.195Z,0.40
2022-12-31T09:21:23.120Z,0.40
2022-12-31T09:22:23.124Z,0.40
2022-12-31T09:23:23.082Z,0.40
2022-12-31T09:24:23.074Z,0.50
2022-12-31T09:25:23.061Z,0.30
2022-12-31T09:26:23.061Z,0.40
2022-12-31T09:27:27.613Z,0.40
2022-12-31T09:28:24.071Z,0.50
2022-12-31T09:29:23.020Z,0.40
2022-12-31T09:30:23.010Z,0.40
2022-12-31T09:31:23.059Z,0.40
2022-12-31T09:32:22.989Z,0.30
2022-12-31T09:33:22.971Z,0.40
2022-12-31T09:34:22.966Z,0.40
2022-12-31T09:35:22.952Z,0.40
2022-12-31T09:36:22.937Z,0.40
2022-12-31T09:37:22.926Z,0.50
2022-12-31T09:38:22.922Z,0.40
2022-12-31T09:39:22.905Z,0.40
2022-12-31T09:40:22.920Z,0.30
2022-12-31T09:41:22.881Z,0.40
2022-12-31T09:42:22.886Z,0.40
2022-12-31T09:43:22.859Z,0.40
2022-12-31T09:44:22.867Z,0.40
2022-12-31T09:45:22.838Z,0.50
2022-12-31T09:46:22.864Z,0.40
2022-12-31T09:47:22.815Z,0.40
2022-12-31T09:48:22.805Z,0.40
2022-12-31T09:49:22.792Z,0.40
2022-12-31T09:50:22.782Z,0.40
2022-12-31T09:51:25.435Z,0.40
2022-12-31T09:52:22.777Z,0.40
2022-12-31T09:53:22.747Z,0.40
2022-12-31T09:54:22.748Z,0.30
2022-12-31T09:55:22.725Z,0.40
2022-12-31T09:56:22.713Z,0.50
2022-12-31T09:57:22.708Z,0.40
2022-12-31T09:58:22.704Z,0.50
2022-12-31T09:59:22.681Z,0.40
2022-12-31T10:00:22.696Z,0.40
2022-12-31T10:01:22.841Z,0.40
2022-12-31T10:02:22.807Z,0.40
2022-12-31T10:03:22.691Z,0.40
2022-12-31T10:04:23.406Z,0.40
2022-12-31T10:05:22.614Z,0.40
2022-12-31T10:06:22.607Z,0.40
2022-12-31T10:07:22.594Z,0.40
2022-12-31T10:08:22.580Z,0.40
2022-12-31T10:09:22.568Z,0.40
2022-12-31T10:10:22.586Z,0.30
2022-12-31T10:11:22.552Z,0.30
2022-12-31T10:12:22.539Z,0.40
2022-12-31T10:13:22.527Z,0.30
2022-12-31T10:14:22.513Z,0.40
2022-12-31T10:15:22.504Z,0.40
2022-12-31T10:16:22.552Z,0.40
2022-12-31T10:17:22.477Z,0.40
2022-12-31T10:18:22.468Z,0.30
2022-12-31T10:19:22.456Z,0.40
2022-12-31T10:20:22.449Z,0.60
2022-12-31T10:21:22.452Z,0.40
2022-12-31T10:22:22.438Z,0.50
2022-12-31T10:23:22.411Z,0.40
2022-12-31T10:24:22.403Z,0.40
2022-12-31T10:25:39.249Z,0.40
2022-12-31T10:26:23.383Z,0.40
2022-12-31T10:27:22.365Z,0.40
2022-12-31T10:28:22.374Z,0.50
2022-12-31T10:29:22.346Z,0.50
2022-12-31T10:30:22.354Z,0.50
2022-12-31T10:31:22.414Z,0.40
2022-12-31T10:32:27.774Z,0.40
2022-12-31T10:33:23.306Z,0.40
2022-12-31T10:34:22.291Z,0.50
2022-12-31T10:35:22.280Z,0.50
2022-12-31T10:36:22.268Z,0.50
2022-12-31T10:37:22.265Z,0.40
2022-12-31T10:38:22.261Z,0.50
2022-12-31T10:39:24.524Z,0.50
2022-12-31T10:40:22.224Z,0.50
2022-12-31T10:41:22.217Z,0.40
2022-12-31T10:42:22.200Z,0.50
2022-12-31T10:43:22.192Z,0.50
2022-12-31T10:44:22.175Z,0.40
2022-12-31T10:45:22.168Z,0.50
2022-12-31T10:46:23.338Z,0.50
2022-12-31T10:47:22.147Z,0.40
2022-12-31T10:48:22.177Z,0.40
2022-12-31T10:49:22.118Z,0.50
2022-12-31T10:50:22.109Z,0.40
2022-12-31T10:51:22.102Z,0.40
2022-12-31T10:52:22.117Z,0.40
2022-12-31T10:53:22.075Z,0.50
2022-12-31T10:54:22.067Z,0.50
2022-12-31T10:55:22.061Z,0.40
2022-12-31T10:56:22.054Z,0.40
2022-12-31T10:57:22.038Z,0.40
2022-12-31T10:58:22.021Z,0.40
2022-12-31T10:59:22.005Z,0.40
2022-12-31T11:00:22.010Z,0.40
2022-12-31T11:01:22.067Z,0.40
2022-12-31T11:02:22.163Z,0.40
2022-12-31T11:03:28.806Z,0.50
2022-12-31T11:04:23.026Z,0.50
2022-12-31T11:05:21.942Z,0.40
2022-12-31T11:06:21.928Z,0.30
2022-12-31T11:07:21.927Z,0.40
2022-12-31T11:08:21.941Z,0.50
2022-12-31T11:09:21.903Z,0.40
2022-12-31T11:10:21.889Z,0.60
2022-12-31T11:11:21.872Z,0.50
2022-12-31T11:12:21.869Z,0.60
2022-12-31T11:13:21.849Z,0.40
2022-12-31T11:14:21.845Z,0.50
2022-12-31T11:15:21.863Z,0.50
2022-12-31T11:16:21.871Z,0.50
2022-12-31T11:17:21.806Z,0.50
2022-12-31T11:18:21.796Z,0.40
2022-12-31T11:19:21.789Z,0.50
2022-12-31T11:20:21.792Z,0.40
2022-12-31T11:21:28.008Z,0.50
2022-12-31T11:22:22.747Z,0.40
2022-12-31T11:23:21.737Z,0.40
2022-12-31T11:24:21.725Z,0.50
2022-12-31T11:25:21.718Z,0.40
2022-12-31T11:26:21.711Z,0.50
2022-12-31T11:27:21.727Z,0.50
2022-12-31T11:28:21.686Z,0.40
2022-12-31T11:29:21.675Z,0.40
2022-12-31T11:30:21.661Z,0.50
2022-12-31T11:31:21.716Z,0.40
2022-12-31T11:32:21.645Z,0.40
2022-12-31T11:33:21.632Z,0.50
2022-12-31T11:34:21.637Z,0.50
2022-12-31T11:35:21.604Z,0.40
2022-12-31T11:36:21.614Z,0.50
2022-12-31T11:37:21.583Z,0.40
2022-12-31T11:38:21.569Z,0.40
2022-12-31T11:39:27.252Z,0.50
2022-12-31T11:40:22.546Z,0.40
2022-12-31T11:41:21.547Z,0.40
2022-12-31T11:42:21.524Z,0.40
2022-12-31T11:43:21.512Z,0.40
2022-12-31T11:44:21.521Z,0.40
2022-12-31T11:45:21.498Z,0.50
2022-12-31T11:46:21.508Z,0.50
2022-12-31T11:47:21.469Z,0.50
2022-12-31T11:48:30.649Z,0.50
2022-12-31T11:49:22.451Z,0.50
2022-12-31T11:50:21.439Z,0.40
2022-12-31T11:51:21.432Z,0.40
2022-12-31T11:52:21.989Z,0.50
2022-12-31T11:53:21.416Z,0.50
2022-12-31T11:54:21.400Z,0.50
2022-12-31T11:55:21.378Z,0.40
2022-12-31T11:56:21.383Z,0.50
2022-12-31T11:57:21.386Z,0.40
2022-12-31T11:58:21.345Z,0.40
2022-12-31T11:59:21.347Z,0.40
2022-12-31T12:00:21.330Z,0.50
2022-12-31T12:01:21.454Z,0.50
2022-12-31T12:02:21.364Z,0.50
2022-12-31T12:03:21.308Z,0.50
2022-12-31T12:04:21.278Z,0.50
2022-12-31T12:05:21.274Z,0.40
2022-12-31T12:06:21.262Z,0.50
2022-12-31T12:07:21.246Z,0.40
2022-12-31T12:08:21.257Z,0.40
2022-12-31T12:09:21.229Z,0.50
2022-12-31T12:10:21.225Z,0.50
2022-12-31T12:11:21.205Z,0.50
2022-12-31T12:12:21.189Z,0.40
2022-12-31T12:13:21.178Z,0.50
2022-12-31T12:14:21.167Z,0.40
2022-12-31T12:15:21.186Z,0.50
2022-12-31T12:16:21.193Z,0.50
2022-12-31T12:17:21.133Z,0.40
2022-12-31T12:18:21.121Z,0.50
2022-12-31T12:19:21.116Z,0.40
2022-12-31T12:20:21.098Z,0.40
2022-12-31T12:21:21.102Z,0.40
2022-12-31T12:22:21.099Z,0.50
2022-12-31T12:23:21.065Z,0.40
2022-12-31T12:24:21.091Z,0.40
2022-12-31T12:25:21.064Z,0.40
2022-12-31T12:26:21.034Z,0.50
2022-12-31T12:27:21.051Z,0.40
2022-12-31T12:28:21.013Z,0.50
2022-12-31T12:29:21.004Z,0.40
2022-12-31T12:30:20.991Z,0.40
2022-12-31T12:31:21.098Z,0.40
2022-12-31T12:32:20.961Z,0.40
2022-12-31T12:33:20.982Z,0.50
2022-12-31T12:34:20.942Z,0.40
2022-12-31T12:35:20.931Z,0.50
2022-12-31T12:36:20.932Z,0.60
2022-12-31T12:37:20.908Z,0.50
2022-12-31T12:38:20.897Z,0.40
2022-12-31T12:39:20.891Z,0.50
2022-12-31T12:40:20.900Z,0.40
2022-12-31T12:41:20.869Z,0.40
2022-12-31T12:42:20.854Z,0.50
2022-12-31T12:43:20.870Z,0.40
2022-12-31T12:44:20.831Z,0.50
2022-12-31T12:45:20.829Z,0.40
2022-12-31T12:46:20.833Z,0.50
2022-12-31T12:47:20.798Z,0.50
2022-12-31T12:48:20.812Z,0.40
2022-12-31T12:49:20.773Z,0.50
2022-12-31T12:50:20.763Z,0.50
2022-12-31T12:51:20.776Z,0.50
2022-12-31T12:52:20.740Z,0.50
2022-12-31T12:53:20.727Z,0.40
2022-12-31T12:54:20.734Z,0.40
2022-12-31T12:55:20.711Z,0.40
2022-12-31T12:56:20.716Z,0.50
2022-12-31T12:57:20.702Z,0.40
2022-12-31T12:58:20.671Z,0.50
2022-12-31T12:59:20.663Z,0.50
2022-12-31T13:00:20.649Z,0.40
2022-12-31T13:01:20.788Z,0.50
2022-12-31T13:02:20.720Z,0.40
2022-12-31T13:03:20.681Z,0.40
2022-12-31T13:04:36.227Z,0.50
2022-12-31T13:05:27.719Z,0.50
2022-12-31T13:06:21.584Z,0.50
2022-12-31T13:07:20.571Z,0.50
2022-12-31T13:08:20.561Z,0.50
2022-12-31T13:09:20.567Z,0.50
2022-12-31T13:10:20.536Z,0.50
2022-12-31T13:11:20.536Z,0.50
2022-12-31T13:12:20.551Z,0.50
2022-12-31T13:13:24.946Z,0.50
2022-12-31T13:14:21.513Z,0.50
2022-12-31T13:15:20.481Z,0.50
2022-12-31T13:16:20.483Z,0.50
2022-12-31T13:17:20.459Z,0.50
2022-12-31T13:18:20.536Z,0.50